sensor_id;sensor_type;location;lat;lon;timestamp;temperature;humidity
43185;DHT22;28803;52.308;19.096;2023-10-13T09:40:25;22.50;99.90
43185;DHT22;28803;52.308;19.096;2023-10-13T09:42:55;23.10;99.90
43185;DHT22;28803;52.308;19.096;2023-10-13T09:45:27;23.60;99.90
43185;DHT22;28803;52.308;19.096;2023-10-13T09:48:00;22.90;99.90
43185;DHT22;28803;52.308;19.096;2023-10-13T09:50:37;22.70;99.90
43185;DHT22;28803;52.308;19.096;2023-10-13T09:53:05;21.70;99.90
43185;DHT22;28803;52.308;19.096;2023-10-13T09:55:42;21.20;99.90
43185;DHT22;28803;52.308;19.096;2023-10-13T09:58:13;20.40;99.90
43185;DHT22;28803;52.308;19.096;2023-10-13T10:03:11;20.40;99.90
43185;DHT22;28803;52.308;19.096;2023-10-13T10:06:08;20.70;99.90
43185;DHT22;28803;52.308;19.096;2023-10-13T10:08:46;20.80;99.90
43185;DHT22;28803;52.308;19.096;2023-10-13T10:17:15;21.00;99.90
43185;DHT22;28803;52.308;19.096;2023-10-13T10:19:49;20.90;99.90
43185;DHT22;28803;52.308;19.096;2023-10-13T10:22:38;20.40;99.90
43185;DHT22;28803;52.308;19.096;2023-10-13T10:25:06;20.30;99.90
43185;DHT22;28803;52.308;19.096;2023-10-13T10:30:44;19.20;99.90
43185;DHT22;28803;52.308;19.096;2023-10-13T10:33:13;18.80;99.90
43185;DHT22;28803;52.308;19.096;2023-10-13T10:35:41;18.70;99.90
43185;DHT22;28803;52.308;19.096;2023-10-13T10:38:17;18.60;99.90
43185;DHT22;28803;52.308;19.096;2023-10-13T10:40:58;18.60;99.90
43185;DHT22;28803;52.308;19.096;2023-10-13T10:43:39;18.60;99.90
43185;DHT22;28803;52.308;19.096;2023-10-13T10:46:14;18.60;99.90
43185;DHT22;28803;52.308;19.096;2023-10-13T10:48:46;18.60;99.90
43185;DHT22;28803;52.308;19.096;2023-10-13T10:51:14;18.50;99.90
43185;DHT22;28803;52.308;19.096;2023-10-13T10:53:42;18.50;99.90
43185;DHT22;28803;52.308;19.096;2023-10-13T10:56:15;18.60;99.90
43185;DHT22;28803;52.308;19.096;2023-10-13T10:58:56;18.60;99.90
43185;DHT22;28803;52.308;19.096;2023-10-13T11:01:26;18.70;99.90
43185;DHT22;28803;52.308;19.096;2023-10-13T11:04:03;18.70;99.90
43185;DHT22;28803;52.308;19.096;2023-10-13T11:09:34;18.70;99.90
43185;DHT22;28803;52.308;19.096;2023-10-13T11:14:45;18.70;99.90
43185;DHT22;28803;52.308;19.096;2023-10-13T11:20:12;18.70;99.90
43185;DHT22;28803;52.308;19.096;2023-10-13T11:22:47;18.80;99.90
43185;DHT22;28803;52.308;19.096;2023-10-13T11:25:26;18.90;99.90
43185;DHT22;28803;52.308;19.096;2023-10-13T11:27:57;18.90;99.90
43185;DHT22;28803;52.308;19.096;2023-10-13T11:30:27;18.90;99.90
43185;DHT22;28803;52.308;19.096;2023-10-13T11:33:12;18.90;99.90
43185;DHT22;28803;52.308;19.096;2023-10-13T11:35:45;19.00;99.90
43185;DHT22;28803;52.308;19.096;2023-10-13T11:38:16;19.00;99.90
43185;DHT22;28803;52.308;19.096;2023-10-13T11:40:57;18.90;99.90
43185;DHT22;28803;52.308;19.096;2023-10-13T11:46:12;19.10;99.90
43185;DHT22;28803;52.308;19.096;2023-10-13T11:48:45;19.30;99.90
43185;DHT22;28803;52.308;19.096;2023-10-13T11:51:15;19.30;99.90
43185;DHT22;28803;52.308;19.096;2023-10-13T11:53:51;19.40;99.90
43185;DHT22;28803;52.308;19.096;2023-10-13T11:56:24;19.80;99.90
43185;DHT22;28803;52.308;19.096;2023-10-13T11:58:51;19.90;99.90
43185;DHT22;28803;52.308;19.096;2023-10-13T12:01:19;20.00;99.90
43185;DHT22;28803;52.308;19.096;2023-10-13T12:03:49;19.90;99.90
43185;DHT22;28803;52.308;19.096;2023-10-13T12:06:36;19.90;99.90
43185;DHT22;28803;52.308;19.096;2023-10-13T12:09:04;20.30;99.90
43185;DHT22;28803;52.308;19.096;2023-10-13T12:11:49;20.20;99.90
43185;DHT22;28803;52.308;19.096;2023-10-13T12:14:21;20.40;99.90
43185;DHT22;28803;52.308;19.096;2023-10-13T12:16:55;20.50;99.90
43185;DHT22;28803;52.308;19.096;2023-10-13T12:19:24;20.60;99.90
43185;DHT22;28803;52.308;19.096;2023-10-13T12:21:53;20.60;99.90
43185;DHT22;28803;52.308;19.096;2023-10-13T12:24:27;20.50;99.90
43185;DHT22;28803;52.308;19.096;2023-10-13T12:27:08;20.50;99.90
43185;DHT22;28803;52.308;19.096;2023-10-13T12:30:02;20.50;99.90
43185;DHT22;28803;52.308;19.096;2023-10-13T12:32:35;20.30;99.90
43185;DHT22;28803;52.308;19.096;2023-10-13T12:35:03;20.10;99.90
43185;DHT22;28803;52.308;19.096;2023-10-13T12:37:32;20.00;99.90
43185;DHT22;28803;52.308;19.096;2023-10-13T12:43:02;19.70;99.90
43185;DHT22;28803;52.308;19.096;2023-10-13T12:45:50;19.60;99.90
43185;DHT22;28803;52.308;19.096;2023-10-13T12:48:37;19.40;99.90
43185;DHT22;28803;52.308;19.096;2023-10-13T12:51:26;19.30;99.90
43185;DHT22;28803;52.308;19.096;2023-10-13T12:54:01;19.20;99.90
43185;DHT22;28803;52.308;19.096;2023-10-13T12:56:32;19.20;99.90
43185;DHT22;28803;52.308;19.096;2023-10-13T12:59:00;19.10;99.90
43185;DHT22;28803;52.308;19.096;2023-10-13T13:01:27;19.10;99.90
43185;DHT22;28803;52.308;19.096;2023-10-13T13:04:00;19.10;99.90
43185;DHT22;28803;52.308;19.096;2023-10-13T13:06:31;19.10;99.90
43185;DHT22;28803;52.308;19.096;2023-10-13T13:08:59;19.00;99.90
43185;DHT22;28803;52.308;19.096;2023-10-13T13:11:27;19.00;99.90
43185;DHT22;28803;52.308;19.096;2023-10-13T13:13:57;18.40;99.90
43185;DHT22;28803;52.308;19.096;2023-10-13T13:16:25;18.20;99.90
43185;DHT22;28803;52.308;19.096;2023-10-13T13:18:58;17.80;99.90
43185;DHT22;28803;52.308;19.096;2023-10-13T13:21:25;17.70;99.90
43185;DHT22;28803;52.308;19.096;2023-10-13T13:23:54;17.70;99.90
43185;DHT22;28803;52.308;19.096;2023-10-13T13:26:25;17.70;99.90
43185;DHT22;28803;52.308;19.096;2023-10-13T13:28:53;17.50;99.90
43185;DHT22;28803;52.308;19.096;2023-10-13T13:31:23;17.50;99.90
43185;DHT22;28803;52.308;19.096;2023-10-13T13:33:56;17.50;99.90
43185;DHT22;28803;52.308;19.096;2023-10-13T13:36:24;17.80;99.90
43185;DHT22;28803;52.308;19.096;2023-10-13T13:38:51;17.80;99.90
43185;DHT22;28803;52.308;19.096;2023-10-13T13:41:21;17.90;99.90
43185;DHT22;28803;52.308;19.096;2023-10-13T13:43:49;17.90;99.90
43185;DHT22;28803;52.308;19.096;2023-10-13T13:46:21;18.00;99.90
43185;DHT22;28803;52.308;19.096;2023-10-13T13:49:09;18.10;99.90
43185;DHT22;28803;52.308;19.096;2023-10-13T13:51:45;18.40;99.90
43185;DHT22;28803;52.308;19.096;2023-10-13T13:54:19;18.50;99.90
43185;DHT22;28803;52.308;19.096;2023-10-13T13:56:47;18.50;99.90
43185;DHT22;28803;52.308;19.096;2023-10-13T13:59:15;18.70;99.90
43185;DHT22;28803;52.308;19.096;2023-10-13T14:01:43;18.70;99.90
43185;DHT22;28803;52.308;19.096;2023-10-13T14:04:12;18.70;99.90
43185;DHT22;28803;52.308;19.096;2023-10-13T14:06:41;18.70;99.90
43185;DHT22;28803;52.308;19.096;2023-10-13T14:09:12;18.70;99.90
43185;DHT22;28803;52.308;19.096;2023-10-13T14:12:01;18.60;99.90
43185;DHT22;28803;52.308;19.096;2023-10-13T14:14:48;18.50;99.90
43185;DHT22;28803;52.308;19.096;2023-10-13T14:17:24;18.40;99.90
43185;DHT22;28803;52.308;19.096;2023-10-13T14:19:58;18.40;99.90
43185;DHT22;28803;52.308;19.096;2023-10-13T14:22:25;18.40;99.90
43185;DHT22;28803;52.308;19.096;2023-10-13T14:24:53;18.40;99.90
43185;DHT22;28803;52.308;19.096;2023-10-13T14:27:23;18.40;99.90
43185;DHT22;28803;52.308;19.096;2023-10-13T14:29:53;18.40;99.90
43185;DHT22;28803;52.308;19.096;2023-10-13T14:32:21;18.40;99.90
43185;DHT22;28803;52.308;19.096;2023-10-13T14:34:52;18.40;99.90
43185;DHT22;28803;52.308;19.096;2023-10-13T14:37:24;18.30;99.90
43185;DHT22;28803;52.308;19.096;2023-10-13T14:39:58;18.40;99.90
43185;DHT22;28803;52.308;19.096;2023-10-13T14:42:27;18.30;99.90
43185;DHT22;28803;52.308;19.096;2023-10-13T14:44:55;18.20;99.90
43185;DHT22;28803;52.308;19.096;2023-10-13T14:47:26;18.10;99.90
43185;DHT22;28803;52.308;19.096;2023-10-13T14:49:55;18.10;99.90
43185;DHT22;28803;52.308;19.096;2023-10-13T14:52:23;18.10;99.90
43185;DHT22;28803;52.308;19.096;2023-10-13T14:54:50;18.10;99.90
43185;DHT22;28803;52.308;19.096;2023-10-13T14:57:23;18.00;99.90
43185;DHT22;28803;52.308;19.096;2023-10-13T14:59:54;18.00;99.90
43185;DHT22;28803;52.308;19.096;2023-10-13T15:02:22;18.00;99.90
43185;DHT22;28803;52.308;19.096;2023-10-13T15:04:50;18.00;99.90
43185;DHT22;28803;52.308;19.096;2023-10-13T15:07:18;17.90;99.90
43185;DHT22;28803;52.308;19.096;2023-10-13T15:12:14;17.90;99.90
43185;DHT22;28803;52.308;19.096;2023-10-13T15:14:49;17.90;99.90
43185;DHT22;28803;52.308;19.096;2023-10-13T15:17:17;17.90;99.90
43185;DHT22;28803;52.308;19.096;2023-10-13T15:19:44;17.90;99.90
43185;DHT22;28803;52.308;19.096;2023-10-13T15:22:12;17.80;99.90
43185;DHT22;28803;52.308;19.096;2023-10-13T15:24:52;17.90;99.90
43185;DHT22;28803;52.308;19.096;2023-10-13T15:27:37;17.80;99.90
43185;DHT22;28803;52.308;19.096;2023-10-13T15:30:09;17.70;99.90
43185;DHT22;28803;52.308;19.096;2023-10-13T15:32:47;17.70;99.90
43185;DHT22;28803;52.308;19.096;2023-10-13T15:35:17;17.70;99.90
43185;DHT22;28803;52.308;19.096;2023-10-13T15:37:45;17.70;99.90
43185;DHT22;28803;52.308;19.096;2023-10-13T15:40:14;17.60;99.90
43185;DHT22;28803;52.308;19.096;2023-10-13T15:42:44;17.60;99.90
43185;DHT22;28803;52.308;19.096;2023-10-13T15:45:13;17.60;99.90
43185;DHT22;28803;52.308;19.096;2023-10-13T15:47:47;17.50;99.90
43185;DHT22;28803;52.308;19.096;2023-10-13T15:50:18;17.50;99.90
43185;DHT22;28803;52.308;19.096;2023-10-13T15:52:48;17.50;99.90
43185;DHT22;28803;52.308;19.096;2023-10-13T15:55:16;17.50;99.90
43185;DHT22;28803;52.308;19.096;2023-10-13T15:57:44;17.50;99.90
43185;DHT22;28803;52.308;19.096;2023-10-13T16:00:13;17.50;99.90
43185;DHT22;28803;52.308;19.096;2023-10-13T16:02:57;17.50;99.90
43185;DHT22;28803;52.308;19.096;2023-10-13T16:05:31;17.50;99.90
43185;DHT22;28803;52.308;19.096;2023-10-13T16:08:02;17.40;99.90
43185;DHT22;28803;52.308;19.096;2023-10-13T16:10:31;17.40;99.90
43185;DHT22;28803;52.308;19.096;2023-10-13T16:12:58;17.50;99.90
43185;DHT22;28803;52.308;19.096;2023-10-13T16:15:26;17.50;99.90
43185;DHT22;28803;52.308;19.096;2023-10-13T16:17:53;17.30;99.90
43185;DHT22;28803;52.308;19.096;2023-10-13T16:20:21;17.40;99.90
43185;DHT22;28803;52.308;19.096;2023-10-13T16:23:08;17.30;99.90
43185;DHT22;28803;52.308;19.096;2023-10-13T16:25:36;17.20;99.90
43185;DHT22;28803;52.308;19.096;2023-10-13T16:28:04;17.30;99.90
43185;DHT22;28803;52.308;19.096;2023-10-13T16:30:32;17.30;99.90
43185;DHT22;28803;52.308;19.096;2023-10-13T16:33:00;17.30;99.90
43185;DHT22;28803;52.308;19.096;2023-10-13T16:35:27;17.20;99.90
43185;DHT22;28803;52.308;19.096;2023-10-13T16:38:00;17.20;99.90
43185;DHT22;28803;52.308;19.096;2023-10-13T16:40:34;17.10;99.90
43185;DHT22;28803;52.308;19.096;2023-10-13T16:43:02;17.10;99.90
43185;DHT22;28803;52.308;19.096;2023-10-13T16:45:30;17.10;99.90
43185;DHT22;28803;52.308;19.096;2023-10-13T16:47:58;17.00;99.90
43185;DHT22;28803;52.308;19.096;2023-10-13T16:50:28;17.00;99.90
43185;DHT22;28803;52.308;19.096;2023-10-13T16:52:55;17.00;99.90
43185;DHT22;28803;52.308;19.096;2023-10-13T16:55:27;16.90;99.90
43185;DHT22;28803;52.308;19.096;2023-10-13T16:57:55;16.80;99.90
43185;DHT22;28803;52.308;19.096;2023-10-13T17:00:23;16.80;99.90
43185;DHT22;28803;52.308;19.096;2023-10-13T17:02:54;16.80;99.90
43185;DHT22;28803;52.308;19.096;2023-10-13T17:05:23;16.80;99.90
43185;DHT22;28803;52.308;19.096;2023-10-13T17:07:55;16.80;99.90
43185;DHT22;28803;52.308;19.096;2023-10-13T17:10:27;16.80;99.90
43185;DHT22;28803;52.308;19.096;2023-10-13T17:12:58;16.70;99.90
43185;DHT22;28803;52.308;19.096;2023-10-13T17:15:32;16.70;99.90
43185;DHT22;28803;52.308;19.096;2023-10-13T17:18:00;16.70;99.90
43185;DHT22;28803;52.308;19.096;2023-10-13T17:20:39;16.70;99.90
43185;DHT22;28803;52.308;19.096;2023-10-13T17:23:07;16.70;99.90
43185;DHT22;28803;52.308;19.096;2023-10-13T17:25:35;16.60;99.90
43185;DHT22;28803;52.308;19.096;2023-10-13T17:28:03;16.60;99.90
43185;DHT22;28803;52.308;19.096;2023-10-13T17:30:42;16.60;99.90
43185;DHT22;28803;52.308;19.096;2023-10-13T17:33:11;16.60;99.90
43185;DHT22;28803;52.308;19.096;2023-10-13T17:35:39;16.70;99.90
43185;DHT22;28803;52.308;19.096;2023-10-13T17:38:07;16.70;99.90
43185;DHT22;28803;52.308;19.096;2023-10-13T17:40:36;16.70;99.90
43185;DHT22;28803;52.308;19.096;2023-10-13T17:43:05;16.70;99.90
43185;DHT22;28803;52.308;19.096;2023-10-13T17:45:32;16.70;99.90
43185;DHT22;28803;52.308;19.096;2023-10-13T17:48:03;16.70;99.90
43185;DHT22;28803;52.308;19.096;2023-10-13T17:50:33;16.70;99.90
43185;DHT22;28803;52.308;19.096;2023-10-13T17:53:02;16.70;99.90
43185;DHT22;28803;52.308;19.096;2023-10-13T17:55:30;16.70;99.90
43185;DHT22;28803;52.308;19.096;2023-10-13T17:57:57;16.70;99.90
43185;DHT22;28803;52.308;19.096;2023-10-13T18:00:26;16.70;99.90
43185;DHT22;28803;52.308;19.096;2023-10-13T18:02:53;16.70;99.90
43185;DHT22;28803;52.308;19.096;2023-10-13T18:05:22;16.80;99.90
43185;DHT22;28803;52.308;19.096;2023-10-13T18:07:49;16.90;99.90
43185;DHT22;28803;52.308;19.096;2023-10-13T18:10:17;16.90;99.90
43185;DHT22;28803;52.308;19.096;2023-10-13T18:12:44;17.00;99.90
43185;DHT22;28803;52.308;19.096;2023-10-13T18:15:14;17.00;99.90
43185;DHT22;28803;52.308;19.096;2023-10-13T18:17:45;17.10;99.90
43185;DHT22;28803;52.308;19.096;2023-10-13T18:20:13;17.10;99.90
43185;DHT22;28803;52.308;19.096;2023-10-13T18:22:46;17.10;99.90
43185;DHT22;28803;52.308;19.096;2023-10-13T18:25:14;17.20;99.90
43185;DHT22;28803;52.308;19.096;2023-10-13T18:27:42;17.20;99.90
43185;DHT22;28803;52.308;19.096;2023-10-13T18:30:11;17.20;99.90
43185;DHT22;28803;52.308;19.096;2023-10-13T18:32:42;17.20;99.90
43185;DHT22;28803;52.308;19.096;2023-10-13T18:35:10;17.30;99.90
43185;DHT22;28803;52.308;19.096;2023-10-13T18:37:42;17.30;99.90
43185;DHT22;28803;52.308;19.096;2023-10-13T18:40:13;17.30;99.90
43185;DHT22;28803;52.308;19.096;2023-10-13T18:42:43;17.40;99.90
43185;DHT22;28803;52.308;19.096;2023-10-13T18:45:19;17.40;99.90
43185;DHT22;28803;52.308;19.096;2023-10-13T18:47:50;17.30;99.90
43185;DHT22;28803;52.308;19.096;2023-10-13T18:50:21;17.30;99.90
43185;DHT22;28803;52.308;19.096;2023-10-13T18:52:51;17.30;99.90
43185;DHT22;28803;52.308;19.096;2023-10-13T18:55:20;17.20;99.90
43185;DHT22;28803;52.308;19.096;2023-10-13T18:57:47;17.10;99.90
43185;DHT22;28803;52.308;19.096;2023-10-13T19:00:15;17.10;99.90
43185;DHT22;28803;52.308;19.096;2023-10-13T19:02:43;17.00;99.90
43185;DHT22;28803;52.308;19.096;2023-10-13T19:05:13;17.00;99.90
43185;DHT22;28803;52.308;19.096;2023-10-13T19:07:41;17.00;99.90
43185;DHT22;28803;52.308;19.096;2023-10-13T19:10:10;17.00;99.90
43185;DHT22;28803;52.308;19.096;2023-10-13T19:12:43;17.00;99.90
43185;DHT22;28803;52.308;19.096;2023-10-13T19:15:11;17.00;99.90
43185;DHT22;28803;52.308;19.096;2023-10-13T19:17:43;17.00;99.90
43185;DHT22;28803;52.308;19.096;2023-10-13T19:20:11;17.00;99.90
43185;DHT22;28803;52.308;19.096;2023-10-13T19:22:44;17.00;99.90
43185;DHT22;28803;52.308;19.096;2023-10-13T19:25:21;17.00;99.90
43185;DHT22;28803;52.308;19.096;2023-10-13T19:27:51;17.00;99.90
43185;DHT22;28803;52.308;19.096;2023-10-13T19:30:19;16.90;99.90
43185;DHT22;28803;52.308;19.096;2023-10-13T19:32:48;16.90;99.90
43185;DHT22;28803;52.308;19.096;2023-10-13T19:35:19;17.00;99.90
43185;DHT22;28803;52.308;19.096;2023-10-13T19:37:48;16.90;99.90
43185;DHT22;28803;52.308;19.096;2023-10-13T19:40:16;16.80;99.90
43185;DHT22;28803;52.308;19.096;2023-10-13T19:42:43;16.80;99.90
43185;DHT22;28803;52.308;19.096;2023-10-13T19:45:11;16.80;99.90
43185;DHT22;28803;52.308;19.096;2023-10-13T19:47:40;16.70;99.90
43185;DHT22;28803;52.308;19.096;2023-10-13T19:50:09;16.70;99.90
43185;DHT22;28803;52.308;19.096;2023-10-13T19:52:46;16.80;99.90
43185;DHT22;28803;52.308;19.096;2023-10-13T19:55:14;16.70;99.90
43185;DHT22;28803;52.308;19.096;2023-10-13T19:57:45;16.80;99.90
43185;DHT22;28803;52.308;19.096;2023-10-13T20:00:13;16.80;99.90
43185;DHT22;28803;52.308;19.096;2023-10-13T20:02:47;16.80;99.90
43185;DHT22;28803;52.308;19.096;2023-10-13T20:05:19;16.80;99.90
43185;DHT22;28803;52.308;19.096;2023-10-13T20:07:48;16.80;99.90
43185;DHT22;28803;52.308;19.096;2023-10-13T20:10:17;16.80;99.90
43185;DHT22;28803;52.308;19.096;2023-10-13T20:12:44;16.90;99.90
43185;DHT22;28803;52.308;19.096;2023-10-13T20:15:13;16.90;99.90
43185;DHT22;28803;52.308;19.096;2023-10-13T20:17:43;17.00;99.90
43185;DHT22;28803;52.308;19.096;2023-10-13T20:20:11;17.00;99.90
43185;DHT22;28803;52.308;19.096;2023-10-13T20:22:44;17.10;99.90
43185;DHT22;28803;52.308;19.096;2023-10-13T20:25:12;17.10;99.90
43185;DHT22;28803;52.308;19.096;2023-10-13T20:27:42;17.10;99.90
43185;DHT22;28803;52.308;19.096;2023-10-13T20:30:12;17.20;99.90
43185;DHT22;28803;52.308;19.096;2023-10-13T20:32:39;17.20;99.90
43185;DHT22;28803;52.308;19.096;2023-10-13T20:35:07;17.30;99.90
43185;DHT22;28803;52.308;19.096;2023-10-13T20:37:34;17.30;99.90
43185;DHT22;28803;52.308;19.096;2023-10-13T20:40:03;17.30;99.90
43185;DHT22;28803;52.308;19.096;2023-10-13T20:42:49;17.40;99.90
43185;DHT22;28803;52.308;19.096;2023-10-13T20:45:20;17.40;99.90
43185;DHT22;28803;52.308;19.096;2023-10-13T20:47:51;17.40;99.90
43185;DHT22;28803;52.308;19.096;2023-10-13T20:50:20;17.40;99.90
43185;DHT22;28803;52.308;19.096;2023-10-13T20:52:49;17.40;99.90
43185;DHT22;28803;52.308;19.096;2023-10-13T20:55:18;17.40;99.90
43185;DHT22;28803;52.308;19.096;2023-10-13T20:57:46;17.40;99.90
43185;DHT22;28803;52.308;19.096;2023-10-13T21:00:22;17.40;99.90
43185;DHT22;28803;52.308;19.096;2023-10-13T21:02:51;17.40;99.90
43185;DHT22;28803;52.308;19.096;2023-10-13T21:05:20;17.40;99.90
43185;DHT22;28803;52.308;19.096;2023-10-13T21:07:54;17.30;99.90
43185;DHT22;28803;52.308;19.096;2023-10-13T21:10:22;17.30;99.90
43185;DHT22;28803;52.308;19.096;2023-10-13T21:12:52;17.20;99.90
43185;DHT22;28803;52.308;19.096;2023-10-13T21:15:19;17.20;99.90
43185;DHT22;28803;52.308;19.096;2023-10-13T21:17:52;17.20;99.90
43185;DHT22;28803;52.308;19.096;2023-10-13T21:20:20;17.20;99.90
43185;DHT22;28803;52.308;19.096;2023-10-13T21:22:49;17.20;99.90
43185;DHT22;28803;52.308;19.096;2023-10-13T21:25:21;17.20;99.90
43185;DHT22;28803;52.308;19.096;2023-10-13T21:27:53;17.20;99.90
43185;DHT22;28803;52.308;19.096;2023-10-13T21:30:23;17.20;99.90
43185;DHT22;28803;52.308;19.096;2023-10-13T21:32:52;17.20;99.90
43185;DHT22;28803;52.308;19.096;2023-10-13T21:35:20;17.10;99.90
43185;DHT22;28803;52.308;19.096;2023-10-13T21:37:47;17.00;99.90
43185;DHT22;28803;52.308;19.096;2023-10-13T21:40:15;16.90;99.90
43185;DHT22;28803;52.308;19.096;2023-10-13T21:42:48;16.90;99.90
43185;DHT22;28803;52.308;19.096;2023-10-13T21:45:19;16.80;99.90
43185;DHT22;28803;52.308;19.096;2023-10-13T21:47:47;16.70;99.90
43185;DHT22;28803;52.308;19.096;2023-10-13T21:50:15;16.70;99.90
43185;DHT22;28803;52.308;19.096;2023-10-13T21:52:47;16.60;99.90
43185;DHT22;28803;52.308;19.096;2023-10-13T21:55:16;16.60;99.90
43185;DHT22;28803;52.308;19.096;2023-10-13T21:57:47;16.50;99.90
43185;DHT22;28803;52.308;19.096;2023-10-13T22:00:22;16.50;99.90
43185;DHT22;28803;52.308;19.096;2023-10-13T22:03:09;16.50;99.90
43185;DHT22;28803;52.308;19.096;2023-10-13T22:05:40;16.50;99.90
43185;DHT22;28803;52.308;19.096;2023-10-13T22:08:07;16.40;99.90
43185;DHT22;28803;52.308;19.096;2023-10-13T22:10:34;16.40;99.90
43185;DHT22;28803;52.308;19.096;2023-10-13T22:13:01;16.40;99.90
43185;DHT22;28803;52.308;19.096;2023-10-13T22:15:30;16.40;99.90
43185;DHT22;28803;52.308;19.096;2023-10-13T22:17:57;16.60;99.90
43185;DHT22;28803;52.308;19.096;2023-10-13T22:20:25;16.50;99.90
43185;DHT22;28803;52.308;19.096;2023-10-13T22:22:52;16.60;99.90
43185;DHT22;28803;52.308;19.096;2023-10-13T22:25:20;16.80;99.90
43185;DHT22;28803;52.308;19.096;2023-10-13T22:27:47;16.90;99.90
43185;DHT22;28803;52.308;19.096;2023-10-13T22:30:16;16.90;99.90
43185;DHT22;28803;52.308;19.096;2023-10-13T22:32:51;16.90;99.90
43185;DHT22;28803;52.308;19.096;2023-10-13T22:35:19;17.00;99.90
43185;DHT22;28803;52.308;19.096;2023-10-13T22:37:48;17.00;99.90
43185;DHT22;28803;52.308;19.096;2023-10-13T22:40:19;17.00;99.90
43185;DHT22;28803;52.308;19.096;2023-10-13T22:42:48;16.90;99.90
43185;DHT22;28803;52.308;19.096;2023-10-13T22:45:17;16.90;99.90
43185;DHT22;28803;52.308;19.096;2023-10-13T22:47:54;16.80;99.90
43185;DHT22;28803;52.308;19.096;2023-10-13T22:50:23;16.80;99.90
43185;DHT22;28803;52.308;19.096;2023-10-13T22:52:54;16.80;99.90
43185;DHT22;28803;52.308;19.096;2023-10-13T22:55:28;16.80;99.90
43185;DHT22;28803;52.308;19.096;2023-10-13T22:57:56;16.60;99.90
43185;DHT22;28803;52.308;19.096;2023-10-13T23:00:27;16.60;99.90
43185;DHT22;28803;52.308;19.096;2023-10-13T23:03:14;16.60;99.90
43185;DHT22;28803;52.308;19.096;2023-10-13T23:05:42;16.50;99.90
43185;DHT22;28803;52.308;19.096;2023-10-13T23:08:22;16.60;99.90
43185;DHT22;28803;52.308;19.096;2023-10-13T23:10:50;16.60;99.90
43185;DHT22;28803;52.308;19.096;2023-10-13T23:13:20;16.60;99.90
43185;DHT22;28803;52.308;19.096;2023-10-13T23:15:49;16.60;99.90
43185;DHT22;28803;52.308;19.096;2023-10-13T23:18:20;16.60;99.90
43185;DHT22;28803;52.308;19.096;2023-10-13T23:20:51;16.50;99.90
43185;DHT22;28803;52.308;19.096;2023-10-13T23:23:18;16.50;99.90
43185;DHT22;28803;52.308;19.096;2023-10-13T23:25:46;16.50;99.90
43185;DHT22;28803;52.308;19.096;2023-10-13T23:28:13;16.50;99.90
43185;DHT22;28803;52.308;19.096;2023-10-13T23:30:52;16.50;99.90
43185;DHT22;28803;52.308;19.096;2023-10-13T23:33:20;16.50;99.90
43185;DHT22;28803;52.308;19.096;2023-10-13T23:35:49;16.50;99.90
43185;DHT22;28803;52.308;19.096;2023-10-13T23:38:17;16.50;99.90
43185;DHT22;28803;52.308;19.096;2023-10-13T23:40:45;16.50;99.90
43185;DHT22;28803;52.308;19.096;2023-10-13T23:43:13;16.50;99.90
43185;DHT22;28803;52.308;19.096;2023-10-13T23:45:54;16.40;99.90
43185;DHT22;28803;52.308;19.096;2023-10-13T23:48:28;16.40;99.90
43185;DHT22;28803;52.308;19.096;2023-10-13T23:51:01;16.50;99.90
43185;DHT22;28803;52.308;19.096;2023-10-13T23:53:29;16.40;99.90
43185;DHT22;28803;52.308;19.096;2023-10-13T23:58:32;16.40;99.90
